sensor_id;sensor_type;location;lat;lon;timestamp;P1;durP1;ratioP1;P2;durP2;ratioP2
71083;SDS011;58741;52.672;13.548;2022-08-01T00:00:34;3.50;;;2.00;;
71083;SDS011;58741;52.672;13.548;2022-08-01T00:03:00;2.65;;;1.92;;
71083;SDS011;58741;52.672;13.548;2022-08-01T00:05:25;2.47;;;2.25;;
71083;SDS011;58741;52.672;13.548;2022-08-01T00:07:51;2.20;;;2.00;;
71083;SDS011;58741;52.672;13.548;2022-08-01T00:10:17;2.78;;;2.38;;
71083;SDS011;58741;52.672;13.548;2022-08-01T00:12:43;4.40;;;2.33;;
71083;SDS011;58741;52.672;13.548;2022-08-01T00:15:10;2.35;;;2.15;;
71083;SDS011;58741;52.672;13.548;2022-08-01T00:17:37;2.40;;;2.20;;
71083;SDS011;58741;52.672;13.548;2022-08-01T00:20:04;2.30;;;2.10;;
71083;SDS011;58741;52.672;13.548;2022-08-01T00:22:31;2.85;;;2.63;;
71083;SDS011;58741;52.672;13.548;2022-08-01T00:24:57;3.40;;;2.83;;
71083;SDS011;58741;52.672;13.548;2022-08-01T00:27:23;3.67;;;2.55;;
71083;SDS011;58741;52.672;13.548;2022-08-01T00:29:48;2.78;;;2.47;;
71083;SDS011;58741;52.672;13.548;2022-08-01T00:32:14;4.68;;;2.35;;
71083;SDS011;58741;52.672;13.548;2022-08-01T00:34:39;2.85;;;2.50;;
71083;SDS011;58741;52.672;13.548;2022-08-01T00:37:05;3.08;;;2.78;;
71083;SDS011;58741;52.672;13.548;2022-08-01T00:39:30;2.65;;;2.45;;
71083;SDS011;58741;52.672;13.548;2022-08-01T00:41:57;3.95;;;3.00;;
71083;SDS011;58741;52.672;13.548;2022-08-01T00:44:24;3.20;;;2.90;;
71083;SDS011;58741;52.672;13.548;2022-08-01T00:46:49;2.65;;;2.45;;
71083;SDS011;58741;52.672;13.548;2022-08-01T00:49:15;3.45;;;2.60;;
71083;SDS011;58741;52.672;13.548;2022-08-01T00:51:40;4.00;;;2.63;;
71083;SDS011;58741;52.672;13.548;2022-08-01T00:54:06;3.53;;;3.22;;
71083;SDS011;58741;52.672;13.548;2022-08-01T00:56:32;4.43;;;3.00;;
71083;SDS011;58741;52.672;13.548;2022-08-01T00:58:57;9.07;;;2.95;;
71083;SDS011;58741;52.672;13.548;2022-08-01T01:01:24;5.22;;;2.60;;
71083;SDS011;58741;52.672;13.548;2022-08-01T01:03:50;3.05;;;2.75;;
71083;SDS011;58741;52.672;13.548;2022-08-01T01:06:27;7.85;;;2.78;;
71083;SDS011;58741;52.672;13.548;2022-08-01T01:11:40;4.97;;;2.90;;
71083;SDS011;58741;52.672;13.548;2022-08-01T01:14:17;3.60;;;2.70;;
71083;SDS011;58741;52.672;13.548;2022-08-01T01:16:49;2.88;;;2.50;;
71083;SDS011;58741;52.672;13.548;2022-08-01T01:19:21;2.78;;;2.42;;
71083;SDS011;58741;52.672;13.548;2022-08-01T01:22:00;2.95;;;2.50;;
71083;SDS011;58741;52.672;13.548;2022-08-01T01:30:37;2.92;;;2.67;;
71083;SDS011;58741;52.672;13.548;2022-08-01T01:33:06;2.80;;;2.50;;
71083;SDS011;58741;52.672;13.548;2022-08-01T01:35:35;2.60;;;2.33;;
71083;SDS011;58741;52.672;13.548;2022-08-01T01:38:10;2.40;;;2.20;;
71083;SDS011;58741;52.672;13.548;2022-08-01T01:40:46;3.53;;;2.63;;
71083;SDS011;58741;52.672;13.548;2022-08-01T01:43:13;2.63;;;2.42;;
71083;SDS011;58741;52.672;13.548;2022-08-01T01:45:40;2.75;;;2.55;;
71083;SDS011;58741;52.672;13.548;2022-08-01T01:48:09;2.83;;;2.60;;
71083;SDS011;58741;52.672;13.548;2022-08-01T01:50:37;2.60;;;2.40;;
71083;SDS011;58741;52.672;13.548;2022-08-01T01:53:04;3.10;;;2.80;;
71083;SDS011;58741;52.672;13.548;2022-08-01T01:55:31;8.70;;;3.03;;
71083;SDS011;58741;52.672;13.548;2022-08-01T01:57:59;3.88;;;2.60;;
71083;SDS011;58741;52.672;13.548;2022-08-01T02:00:26;2.67;;;2.47;;
71083;SDS011;58741;52.672;13.548;2022-08-01T02:02:54;2.92;;;2.65;;
71083;SDS011;58741;52.672;13.548;2022-08-01T02:05:21;2.67;;;2.47;;
71083;SDS011;58741;52.672;13.548;2022-08-01T02:07:48;2.53;;;2.33;;
71083;SDS011;58741;52.672;13.548;2022-08-01T02:10:15;3.17;;;2.88;;
71083;SDS011;58741;52.672;13.548;2022-08-01T02:12:43;2.70;;;2.50;;
71083;SDS011;58741;52.672;13.548;2022-08-01T02:15:11;3.08;;;2.60;;
71083;SDS011;58741;52.672;13.548;2022-08-01T02:17:40;3.00;;;2.70;;
71083;SDS011;58741;52.672;13.548;2022-08-01T02:20:08;3.97;;;2.50;;
71083;SDS011;58741;52.672;13.548;2022-08-01T02:22:36;3.00;;;2.38;;
71083;SDS011;58741;52.672;13.548;2022-08-01T02:25:33;2.70;;;2.50;;
71083;SDS011;58741;52.672;13.548;2022-08-01T02:28:06;2.60;;;2.40;;
71083;SDS011;58741;52.672;13.548;2022-08-01T02:30:36;2.80;;;2.60;;
71083;SDS011;58741;52.672;13.548;2022-08-01T02:33:22;3.47;;;2.22;;
71083;SDS011;58741;52.672;13.548;2022-08-01T02:35:53;2.92;;;2.30;;
71083;SDS011;58741;52.672;13.548;2022-08-01T02:38:23;2.65;;;2.45;;
71083;SDS011;58741;52.672;13.548;2022-08-01T02:40:52;2.63;;;2.42;;
71083;SDS011;58741;52.672;13.548;2022-08-01T02:43:21;2.80;;;2.60;;
71083;SDS011;58741;52.672;13.548;2022-08-01T02:45:49;2.92;;;2.63;;
71083;SDS011;58741;52.672;13.548;2022-08-01T02:48:19;3.53;;;2.60;;
71083;SDS011;58741;52.672;13.548;2022-08-01T02:50:47;3.45;;;2.75;;
71083;SDS011;58741;52.672;13.548;2022-08-01T02:53:16;3.05;;;2.75;;
71083;SDS011;58741;52.672;13.548;2022-08-01T02:55:44;2.78;;;2.58;;
71083;SDS011;58741;52.672;13.548;2022-08-01T02:58:12;3.13;;;2.83;;
71083;SDS011;58741;52.672;13.548;2022-08-01T03:00:40;3.83;;;3.00;;
71083;SDS011;58741;52.672;13.548;2022-08-01T03:03:08;3.22;;;2.92;;
71083;SDS011;58741;52.672;13.548;2022-08-01T03:05:35;3.65;;;3.15;;
71083;SDS011;58741;52.672;13.548;2022-08-01T03:08:02;3.10;;;2.90;;
71083;SDS011;58741;52.672;13.548;2022-08-01T03:10:29;3.15;;;2.85;;
71083;SDS011;58741;52.672;13.548;2022-08-01T03:12:57;3.58;;;3.15;;
71083;SDS011;58741;52.672;13.548;2022-08-01T03:15:25;3.38;;;3.08;;
71083;SDS011;58741;52.672;13.548;2022-08-01T03:17:53;3.30;;;3.00;;
71083;SDS011;58741;52.672;13.548;2022-08-01T03:20:21;3.42;;;3.13;;
71083;SDS011;58741;52.672;13.548;2022-08-01T03:22:49;3.45;;;3.17;;
71083;SDS011;58741;52.672;13.548;2022-08-01T03:25:17;3.28;;;2.97;;
71083;SDS011;58741;52.672;13.548;2022-08-01T03:27:45;3.25;;;2.95;;
71083;SDS011;58741;52.672;13.548;2022-08-01T03:30:16;3.70;;;3.10;;
71083;SDS011;58741;52.672;13.548;2022-08-01T03:32:42;3.55;;;3.25;;
71083;SDS011;58741;52.672;13.548;2022-08-01T03:35:08;3.83;;;3.53;;
71083;SDS011;58741;52.672;13.548;2022-08-01T03:37:47;3.60;;;3.25;;
71083;SDS011;58741;52.672;13.548;2022-08-01T03:40:23;3.33;;;3.05;;
71083;SDS011;58741;52.672;13.548;2022-08-01T03:42:54;3.33;;;3.03;;
71083;SDS011;58741;52.672;13.548;2022-08-01T03:45:23;4.45;;;3.33;;
71083;SDS011;58741;52.672;13.548;2022-08-01T03:47:52;3.30;;;3.00;;
71083;SDS011;58741;52.672;13.548;2022-08-01T03:50:24;3.50;;;3.20;;
71083;SDS011;58741;52.672;13.548;2022-08-01T03:52:50;3.92;;;3.63;;
71083;SDS011;58741;52.672;13.548;2022-08-01T03:55:16;3.47;;;3.17;;
71083;SDS011;58741;52.672;13.548;2022-08-01T03:57:43;3.75;;;3.45;;
71083;SDS011;58741;52.672;13.548;2022-08-01T04:00:11;3.88;;;3.17;;
71083;SDS011;58741;52.672;13.548;2022-08-01T04:02:37;5.20;;;3.53;;
71083;SDS011;58741;52.672;13.548;2022-08-01T04:05:03;3.47;;;3.15;;
71083;SDS011;58741;52.672;13.548;2022-08-01T04:07:30;3.63;;;3.33;;
71083;SDS011;58741;52.672;13.548;2022-08-01T04:09:56;3.08;;;2.88;;
71083;SDS011;58741;52.672;13.548;2022-08-01T04:12:22;3.53;;;3.22;;
71083;SDS011;58741;52.672;13.548;2022-08-01T04:14:48;3.58;;;3.28;;
71083;SDS011;58741;52.672;13.548;2022-08-01T04:17:14;3.83;;;3.08;;
71083;SDS011;58741;52.672;13.548;2022-08-01T04:19:40;3.85;;;3.55;;
71083;SDS011;58741;52.672;13.548;2022-08-01T04:22:07;3.45;;;3.13;;
71083;SDS011;58741;52.672;13.548;2022-08-01T04:24:34;4.00;;;3.70;;
71083;SDS011;58741;52.672;13.548;2022-08-01T04:27:01;3.28;;;3.08;;
71083;SDS011;58741;52.672;13.548;2022-08-01T04:29:34;2.92;;;2.72;;
71083;SDS011;58741;52.672;13.548;2022-08-01T04:32:01;3.60;;;3.28;;
71083;SDS011;58741;52.672;13.548;2022-08-01T04:34:28;4.30;;;3.47;;
71083;SDS011;58741;52.672;13.548;2022-08-01T04:36:56;4.28;;;3.85;;
71083;SDS011;58741;52.672;13.548;2022-08-01T04:39:23;4.55;;;4.15;;
71083;SDS011;58741;52.672;13.548;2022-08-01T04:41:55;3.92;;;3.63;;
71083;SDS011;58741;52.672;13.548;2022-08-01T04:44:25;3.45;;;3.22;;
71083;SDS011;58741;52.672;13.548;2022-08-01T04:46:52;4.78;;;4.38;;
71083;SDS011;58741;52.672;13.548;2022-08-01T04:49:19;4.40;;;3.97;;
71083;SDS011;58741;52.672;13.548;2022-08-01T04:51:52;6.25;;;5.65;;
71083;SDS011;58741;52.672;13.548;2022-08-01T04:54:27;5.07;;;4.68;;
71083;SDS011;58741;52.672;13.548;2022-08-01T04:56:58;5.35;;;4.85;;
71083;SDS011;58741;52.672;13.548;2022-08-01T04:59:28;4.50;;;4.07;;
71083;SDS011;58741;52.672;13.548;2022-08-01T05:02:13;5.43;;;4.70;;
71083;SDS011;58741;52.672;13.548;2022-08-01T05:04:41;4.40;;;4.00;;
71083;SDS011;58741;52.672;13.548;2022-08-01T05:07:07;6.07;;;5.47;;
71083;SDS011;58741;52.672;13.548;2022-08-01T05:09:34;5.72;;;5.13;;
71083;SDS011;58741;52.672;13.548;2022-08-01T05:12:01;6.95;;;6.28;;
71083;SDS011;58741;52.672;13.548;2022-08-01T05:14:28;7.32;;;6.07;;
71083;SDS011;58741;52.672;13.548;2022-08-01T05:16:56;7.65;;;4.65;;
71083;SDS011;58741;52.672;13.548;2022-08-01T05:19:28;5.88;;;4.90;;
71083;SDS011;58741;52.672;13.548;2022-08-01T05:21:55;7.07;;;5.70;;
71083;SDS011;58741;52.672;13.548;2022-08-01T05:24:21;6.47;;;5.85;;
71083;SDS011;58741;52.672;13.548;2022-08-01T05:26:47;5.88;;;5.38;;
71083;SDS011;58741;52.672;13.548;2022-08-01T05:29:13;6.30;;;5.72;;
71083;SDS011;58741;52.672;13.548;2022-08-01T05:31:39;6.30;;;5.70;;
71083;SDS011;58741;52.672;13.548;2022-08-01T05:34:05;7.05;;;5.82;;
71083;SDS011;58741;52.672;13.548;2022-08-01T05:36:30;7.30;;;6.55;;
71083;SDS011;58741;52.672;13.548;2022-08-01T05:38:56;7.10;;;6.40;;
71083;SDS011;58741;52.672;13.548;2022-08-01T05:41:21;7.50;;;6.63;;
71083;SDS011;58741;52.672;13.548;2022-08-01T05:43:47;6.18;;;5.60;;
71083;SDS011;58741;52.672;13.548;2022-08-01T05:46:12;7.10;;;6.00;;
71083;SDS011;58741;52.672;13.548;2022-08-01T05:48:38;6.90;;;6.20;;
71083;SDS011;58741;52.672;13.548;2022-08-01T05:51:03;9.63;;;6.07;;
71083;SDS011;58741;52.672;13.548;2022-08-01T05:53:29;10.23;;;9.23;;
71083;SDS011;58741;52.672;13.548;2022-08-01T05:55:55;8.93;;;8.02;;
71083;SDS011;58741;52.672;13.548;2022-08-01T05:58:21;9.23;;;8.25;;
71083;SDS011;58741;52.672;13.548;2022-08-01T06:00:46;7.95;;;7.00;;
71083;SDS011;58741;52.672;13.548;2022-08-01T06:03:12;8.90;;;7.97;;
71083;SDS011;58741;52.672;13.548;2022-08-01T06:05:39;8.85;;;7.75;;
71083;SDS011;58741;52.672;13.548;2022-08-01T06:08:04;9.05;;;8.05;;
71083;SDS011;58741;52.672;13.548;2022-08-01T06:10:30;10.50;;;9.50;;
71083;SDS011;58741;52.672;13.548;2022-08-01T06:12:56;9.07;;;8.23;;
71083;SDS011;58741;52.672;13.548;2022-08-01T06:15:21;8.25;;;7.45;;
71083;SDS011;58741;52.672;13.548;2022-08-01T06:17:47;9.02;;;8.13;;
71083;SDS011;58741;52.672;13.548;2022-08-01T06:20:12;9.13;;;8.20;;
71083;SDS011;58741;52.672;13.548;2022-08-01T06:22:38;8.45;;;7.65;;
71083;SDS011;58741;52.672;13.548;2022-08-01T06:25:03;8.43;;;7.63;;
71083;SDS011;58741;52.672;13.548;2022-08-01T06:27:30;8.43;;;7.60;;
71083;SDS011;58741;52.672;13.548;2022-08-01T06:29:55;8.98;;;7.95;;
71083;SDS011;58741;52.672;13.548;2022-08-01T06:32:22;9.00;;;7.93;;
71083;SDS011;58741;52.672;13.548;2022-08-01T06:34:47;9.52;;;8.13;;
71083;SDS011;58741;52.672;13.548;2022-08-01T06:37:13;7.95;;;6.97;;
71083;SDS011;58741;52.672;13.548;2022-08-01T06:39:39;7.43;;;6.72;;
71083;SDS011;58741;52.672;13.548;2022-08-01T06:42:05;9.45;;;6.78;;
71083;SDS011;58741;52.672;13.548;2022-08-01T06:44:30;6.97;;;6.32;;
71083;SDS011;58741;52.672;13.548;2022-08-01T06:46:56;6.95;;;6.25;;
71083;SDS011;58741;52.672;13.548;2022-08-01T06:49:23;8.00;;;7.20;;
71083;SDS011;58741;52.672;13.548;2022-08-01T06:51:49;6.88;;;6.28;;
71083;SDS011;58741;52.672;13.548;2022-08-01T06:54:14;7.00;;;6.30;;
71083;SDS011;58741;52.672;13.548;2022-08-01T06:56:41;7.28;;;6.55;;
71083;SDS011;58741;52.672;13.548;2022-08-01T06:59:07;7.80;;;6.85;;
71083;SDS011;58741;52.672;13.548;2022-08-01T07:01:32;6.32;;;5.82;;
71083;SDS011;58741;52.672;13.548;2022-08-01T07:03:58;6.13;;;5.63;;
71083;SDS011;58741;52.672;13.548;2022-08-01T07:06:24;6.47;;;5.93;;
71083;SDS011;58741;52.672;13.548;2022-08-01T07:08:51;6.60;;;6.00;;
71083;SDS011;58741;52.672;13.548;2022-08-01T07:11:17;5.72;;;5.20;;
71083;SDS011;58741;52.672;13.548;2022-08-01T07:13:44;5.53;;;5.03;;
71083;SDS011;58741;52.672;13.548;2022-08-01T07:16:10;6.68;;;4.75;;
71083;SDS011;58741;52.672;13.548;2022-08-01T07:18:39;5.57;;;5.07;;
71083;SDS011;58741;52.672;13.548;2022-08-01T07:21:05;5.63;;;5.13;;
71083;SDS011;58741;52.672;13.548;2022-08-01T07:23:31;5.25;;;4.75;;
71083;SDS011;58741;52.672;13.548;2022-08-01T07:25:56;5.35;;;4.85;;
71083;SDS011;58741;52.672;13.548;2022-08-01T07:28:22;4.97;;;4.57;;
71083;SDS011;58741;52.672;13.548;2022-08-01T07:30:47;4.70;;;4.30;;
71083;SDS011;58741;52.672;13.548;2022-08-01T07:33:13;4.72;;;4.32;;
71083;SDS011;58741;52.672;13.548;2022-08-01T07:35:39;5.32;;;4.07;;
71083;SDS011;58741;52.672;13.548;2022-08-01T07:38:05;4.60;;;4.20;;
71083;SDS011;58741;52.672;13.548;2022-08-01T07:40:33;5.68;;;4.25;;
71083;SDS011;58741;52.672;13.548;2022-08-01T07:42:59;4.30;;;3.90;;
71083;SDS011;58741;52.672;13.548;2022-08-01T07:45:24;3.50;;;3.30;;
71083;SDS011;58741;52.672;13.548;2022-08-01T07:47:51;3.83;;;3.53;;
71083;SDS011;58741;52.672;13.548;2022-08-01T07:50:17;3.38;;;3.10;;
71083;SDS011;58741;52.672;13.548;2022-08-01T07:52:42;2.88;;;2.67;;
71083;SDS011;58741;52.672;13.548;2022-08-01T07:55:09;2.90;;;2.70;;
71083;SDS011;58741;52.672;13.548;2022-08-01T07:57:36;3.45;;;2.75;;
71083;SDS011;58741;52.672;13.548;2022-08-01T08:00:05;2.97;;;2.78;;
71083;SDS011;58741;52.672;13.548;2022-08-01T08:02:32;2.78;;;2.58;;
71083;SDS011;58741;52.672;13.548;2022-08-01T08:04:57;3.10;;;2.90;;
71083;SDS011;58741;52.672;13.548;2022-08-01T08:07:23;3.10;;;2.90;;
71083;SDS011;58741;52.672;13.548;2022-08-01T08:09:49;3.45;;;3.15;;
71083;SDS011;58741;52.672;13.548;2022-08-01T08:12:14;2.58;;;2.38;;
71083;SDS011;58741;52.672;13.548;2022-08-01T08:14:40;2.42;;;2.22;;
71083;SDS011;58741;52.672;13.548;2022-08-01T08:17:05;1.98;;;1.88;;
71083;SDS011;58741;52.672;13.548;2022-08-01T08:19:31;2.17;;;2.03;;
71083;SDS011;58741;52.672;13.548;2022-08-01T08:21:58;2.40;;;2.20;;
71083;SDS011;58741;52.672;13.548;2022-08-01T08:24:24;2.25;;;2.08;;
71083;SDS011;58741;52.672;13.548;2022-08-01T08:26:52;2.00;;;1.90;;
71083;SDS011;58741;52.672;13.548;2022-08-01T08:31:54;1.77;;;1.67;;
71083;SDS011;58741;52.672;13.548;2022-08-01T08:34:21;2.30;;;2.10;;
71083;SDS011;58741;52.672;13.548;2022-08-01T08:36:47;2.45;;;2.15;;
71083;SDS011;58741;52.672;13.548;2022-08-01T08:39:13;2.10;;;2.00;;
71083;SDS011;58741;52.672;13.548;2022-08-01T08:41:39;5.75;;;1.85;;
71083;SDS011;58741;52.672;13.548;2022-08-01T08:44:06;2.00;;;1.80;;
71083;SDS011;58741;52.672;13.548;2022-08-01T08:46:33;2.17;;;2.08;;
71083;SDS011;58741;52.672;13.548;2022-08-01T08:49:03;1.80;;;1.70;;
71083;SDS011;58741;52.672;13.548;2022-08-01T08:51:30;1.88;;;1.75;;
71083;SDS011;58741;52.672;13.548;2022-08-01T08:53:58;2.10;;;1.90;;
71083;SDS011;58741;52.672;13.548;2022-08-01T08:56:25;2.45;;;2.22;;
71083;SDS011;58741;52.672;13.548;2022-08-01T08:58:54;1.95;;;1.85;;
71083;SDS011;58741;52.672;13.548;2022-08-01T09:01:21;1.60;;;1.50;;
71083;SDS011;58741;52.672;13.548;2022-08-01T09:03:46;1.60;;;1.50;;
71083;SDS011;58741;52.672;13.548;2022-08-01T09:06:12;1.80;;;1.70;;
71083;SDS011;58741;52.672;13.548;2022-08-01T09:08:39;1.80;;;1.70;;
71083;SDS011;58741;52.672;13.548;2022-08-01T09:11:04;2.38;;;1.80;;
71083;SDS011;58741;52.672;13.548;2022-08-01T09:13:30;1.90;;;1.80;;
71083;SDS011;58741;52.672;13.548;2022-08-01T09:15:55;1.77;;;1.67;;
71083;SDS011;58741;52.672;13.548;2022-08-01T09:18:37;2.17;;;1.58;;
71083;SDS011;58741;52.672;13.548;2022-08-01T09:23:31;1.60;;;1.50;;
71083;SDS011;58741;52.672;13.548;2022-08-01T09:28:55;1.65;;;1.55;;
71083;SDS011;58741;52.672;13.548;2022-08-01T09:31:20;1.50;;;1.40;;
71083;SDS011;58741;52.672;13.548;2022-08-01T09:33:47;1.50;;;1.40;;
71083;SDS011;58741;52.672;13.548;2022-08-01T09:36:21;1.70;;;1.60;;
71083;SDS011;58741;52.672;13.548;2022-08-01T09:38:49;1.65;;;1.55;;
71083;SDS011;58741;52.672;13.548;2022-08-01T09:41:15;1.63;;;1.52;;
71083;SDS011;58741;52.672;13.548;2022-08-01T09:43:47;2.10;;;1.90;;
71083;SDS011;58741;52.672;13.548;2022-08-01T09:46:14;4.75;;;2.00;;
71083;SDS011;58741;52.672;13.548;2022-08-01T09:51:38;1.60;;;1.50;;
71083;SDS011;58741;52.672;13.548;2022-08-01T09:54:05;1.48;;;1.38;;
71083;SDS011;58741;52.672;13.548;2022-08-01T09:56:38;1.33;;;1.23;;
71083;SDS011;58741;52.672;13.548;2022-08-01T09:59:07;1.52;;;1.42;;
71083;SDS011;58741;52.672;13.548;2022-08-01T10:01:49;1.70;;;1.60;;
71083;SDS011;58741;52.672;13.548;2022-08-01T10:04:16;1.40;;;1.30;;
71083;SDS011;58741;52.672;13.548;2022-08-01T10:06:46;1.27;;;1.17;;
71083;SDS011;58741;52.672;13.548;2022-08-01T10:09:32;2.17;;;1.48;;
71083;SDS011;58741;52.672;13.548;2022-08-01T10:11:59;1.30;;;1.20;;
71083;SDS011;58741;52.672;13.548;2022-08-01T10:14:26;1.20;;;1.10;;
71083;SDS011;58741;52.672;13.548;2022-08-01T10:16:52;5.07;;;1.33;;
71083;SDS011;58741;52.672;13.548;2022-08-01T10:19:21;1.60;;;1.10;;
71083;SDS011;58741;52.672;13.548;2022-08-01T10:21:49;1.42;;;1.33;;
71083;SDS011;58741;52.672;13.548;2022-08-01T10:24:17;2.72;;;1.58;;
71083;SDS011;58741;52.672;13.548;2022-08-01T10:26:48;1.95;;;1.58;;
71083;SDS011;58741;52.672;13.548;2022-08-01T10:29:23;1.88;;;1.48;;
71083;SDS011;58741;52.672;13.548;2022-08-01T10:31:50;1.35;;;1.25;;
71083;SDS011;58741;52.672;13.548;2022-08-01T10:34:16;2.25;;;1.70;;
71083;SDS011;58741;52.672;13.548;2022-08-01T10:36:45;1.80;;;1.67;;
71083;SDS011;58741;52.672;13.548;2022-08-01T10:39:11;2.03;;;1.50;;
71083;SDS011;58741;52.672;13.548;2022-08-01T10:41:40;1.90;;;1.70;;
71083;SDS011;58741;52.672;13.548;2022-08-01T10:44:09;1.55;;;1.45;;
71083;SDS011;58741;52.672;13.548;2022-08-01T10:46:38;1.50;;;1.40;;
71083;SDS011;58741;52.672;13.548;2022-08-01T10:49:09;1.70;;;1.60;;
71083;SDS011;58741;52.672;13.548;2022-08-01T10:51:37;2.58;;;1.85;;
71083;SDS011;58741;52.672;13.548;2022-08-01T10:54:08;1.90;;;1.60;;
71083;SDS011;58741;52.672;13.548;2022-08-01T10:59:20;1.50;;;1.40;;
71083;SDS011;58741;52.672;13.548;2022-08-01T11:02:01;1.40;;;1.30;;
71083;SDS011;58741;52.672;13.548;2022-08-01T11:07:22;2.03;;;1.88;;
71083;SDS011;58741;52.672;13.548;2022-08-01T11:10:03;1.88;;;1.70;;
71083;SDS011;58741;52.672;13.548;2022-08-01T11:12:41;1.60;;;1.50;;
71083;SDS011;58741;52.672;13.548;2022-08-01T11:20:16;1.77;;;1.50;;
71083;SDS011;58741;52.672;13.548;2022-08-01T11:25:26;3.92;;;1.50;;
71083;SDS011;58741;52.672;13.548;2022-08-01T11:28:40;2.08;;;1.88;;
71083;SDS011;58741;52.672;13.548;2022-08-01T11:30:46;1.45;;;1.35;;
71083;SDS011;58741;52.672;13.548;2022-08-01T11:33:14;3.10;;;1.40;;
71083;SDS011;58741;52.672;13.548;2022-08-01T11:38:41;0.90;;;0.90;;
71083;SDS011;58741;52.672;13.548;2022-08-01T11:41:21;3.83;;;0.90;;
71083;SDS011;58741;52.672;13.548;2022-08-01T11:46:50;0.93;;;0.88;;
71083;SDS011;58741;52.672;13.548;2022-08-01T11:52:07;0.80;;;0.80;;
71083;SDS011;58741;52.672;13.548;2022-08-01T11:54:41;4.72;;;0.90;;
71083;SDS011;58741;52.672;13.548;2022-08-01T11:57:17;0.98;;;0.98;;
71083;SDS011;58741;52.672;13.548;2022-08-01T11:59:52;1.02;;;0.80;;
71083;SDS011;58741;52.672;13.548;2022-08-01T12:02:23;0.80;;;0.80;;
71083;SDS011;58741;52.672;13.548;2022-08-01T12:07:17;1.98;;;1.00;;
71083;SDS011;58741;52.672;13.548;2022-08-01T12:09:43;1.23;;;0.93;;
71083;SDS011;58741;52.672;13.548;2022-08-01T12:12:11;1.38;;;0.98;;
71083;SDS011;58741;52.672;13.548;2022-08-01T12:14:39;0.80;;;0.80;;
71083;SDS011;58741;52.672;13.548;2022-08-01T12:17:05;0.80;;;0.80;;
71083;SDS011;58741;52.672;13.548;2022-08-01T12:19:30;2.05;;;0.80;;
71083;SDS011;58741;52.672;13.548;2022-08-01T12:22:12;1.23;;;0.90;;
71083;SDS011;58741;52.672;13.548;2022-08-01T12:24:39;1.52;;;0.90;;
71083;SDS011;58741;52.672;13.548;2022-08-01T12:27:07;0.50;;;0.50;;
71083;SDS011;58741;52.672;13.548;2022-08-01T12:29:40;0.70;;;0.60;;
71083;SDS011;58741;52.672;13.548;2022-08-01T12:32:22;0.57;;;0.50;;
71083;SDS011;58741;52.672;13.548;2022-08-01T12:34:50;0.52;;;0.52;;
71083;SDS011;58741;52.672;13.548;2022-08-01T12:37:16;0.70;;;0.60;;
71083;SDS011;58741;52.672;13.548;2022-08-01T12:39:43;0.77;;;0.60;;
71083;SDS011;58741;52.672;13.548;2022-08-01T12:42:09;1.58;;;0.70;;
71083;SDS011;58741;52.672;13.548;2022-08-01T12:44:35;0.77;;;0.60;;
71083;SDS011;58741;52.672;13.548;2022-08-01T12:47:01;0.55;;;0.55;;
71083;SDS011;58741;52.672;13.548;2022-08-01T12:49:29;0.70;;;0.70;;
71083;SDS011;58741;52.672;13.548;2022-08-01T12:51:54;2.20;;;1.10;;
71083;SDS011;58741;52.672;13.548;2022-08-01T12:54:21;1.25;;;0.80;;
71083;SDS011;58741;52.672;13.548;2022-08-01T12:56:47;0.60;;;0.60;;
71083;SDS011;58741;52.672;13.548;2022-08-01T12:59:19;0.60;;;0.60;;
71083;SDS011;58741;52.672;13.548;2022-08-01T13:01:48;0.70;;;0.60;;
71083;SDS011;58741;52.672;13.548;2022-08-01T13:04:13;2.60;;;0.90;;
71083;SDS011;58741;52.672;13.548;2022-08-01T13:06:39;1.65;;;0.98;;
71083;SDS011;58741;52.672;13.548;2022-08-01T13:09:05;0.73;;;0.73;;
71083;SDS011;58741;52.672;13.548;2022-08-01T13:11:31;1.38;;;1.02;;
71083;SDS011;58741;52.672;13.548;2022-08-01T13:13:57;0.70;;;0.70;;
71083;SDS011;58741;52.672;13.548;2022-08-01T13:16:26;5.43;;;1.13;;
71083;SDS011;58741;52.672;13.548;2022-08-01T13:18:52;1.23;;;1.10;;
71083;SDS011;58741;52.672;13.548;2022-08-01T13:21:22;1.88;;;1.00;;
71083;SDS011;58741;52.672;13.548;2022-08-01T13:24:09;1.40;;;1.30;;
71083;SDS011;58741;52.672;13.548;2022-08-01T13:26:45;1.25;;;0.90;;
71083;SDS011;58741;52.672;13.548;2022-08-01T13:29:12;0.90;;;0.90;;
71083;SDS011;58741;52.672;13.548;2022-08-01T13:31:45;1.58;;;0.98;;
71083;SDS011;58741;52.672;13.548;2022-08-01T13:34:12;0.80;;;0.80;;
71083;SDS011;58741;52.672;13.548;2022-08-01T13:36:38;0.98;;;0.98;;
71083;SDS011;58741;52.672;13.548;2022-08-01T13:39:04;1.33;;;1.10;;
71083;SDS011;58741;52.672;13.548;2022-08-01T13:41:49;0.80;;;0.80;;
71083;SDS011;58741;52.672;13.548;2022-08-01T13:44:14;1.42;;;1.10;;
71083;SDS011;58741;52.672;13.548;2022-08-01T13:46:40;1.00;;;0.90;;
71083;SDS011;58741;52.672;13.548;2022-08-01T13:49:07;1.75;;;0.95;;
71083;SDS011;58741;52.672;13.548;2022-08-01T13:51:34;0.75;;;0.75;;
71083;SDS011;58741;52.672;13.548;2022-08-01T13:54:00;0.90;;;0.80;;
71083;SDS011;58741;52.672;13.548;2022-08-01T13:56:26;3.60;;;1.10;;
71083;SDS011;58741;52.672;13.548;2022-08-01T13:58:54;0.90;;;0.90;;
71083;SDS011;58741;52.672;13.548;2022-08-01T14:01:21;1.13;;;1.02;;
71083;SDS011;58741;52.672;13.548;2022-08-01T14:03:47;0.80;;;0.80;;
71083;SDS011;58741;52.672;13.548;2022-08-01T14:06:13;0.90;;;0.90;;
71083;SDS011;58741;52.672;13.548;2022-08-01T14:08:41;0.80;;;0.80;;
71083;SDS011;58741;52.672;13.548;2022-08-01T14:11:10;1.27;;;1.17;;
71083;SDS011;58741;52.672;13.548;2022-08-01T14:13:36;1.15;;;0.88;;
71083;SDS011;58741;52.672;13.548;2022-08-01T14:16:03;1.20;;;1.10;;
71083;SDS011;58741;52.672;13.548;2022-08-01T14:18:30;1.05;;;1.00;;
71083;SDS011;58741;52.672;13.548;2022-08-01T14:20:56;0.90;;;0.90;;
71083;SDS011;58741;52.672;13.548;2022-08-01T14:23:21;0.80;;;0.80;;
71083;SDS011;58741;52.672;13.548;2022-08-01T14:25:47;2.05;;;0.88;;
71083;SDS011;58741;52.672;13.548;2022-08-01T14:28:12;1.45;;;0.77;;
71083;SDS011;58741;52.672;13.548;2022-08-01T14:30:38;0.90;;;0.90;;
71083;SDS011;58741;52.672;13.548;2022-08-01T14:33:03;1.05;;;1.00;;
71083;SDS011;58741;52.672;13.548;2022-08-01T14:35:29;2.80;;;0.90;;
71083;SDS011;58741;52.672;13.548;2022-08-01T14:37:54;1.20;;;0.93;;
71083;SDS011;58741;52.672;13.548;2022-08-01T14:40:20;1.23;;;1.10;;
71083;SDS011;58741;52.672;13.548;2022-08-01T14:42:45;0.80;;;0.80;;
71083;SDS011;58741;52.672;13.548;2022-08-01T14:45:11;0.88;;;0.88;;
71083;SDS011;58741;52.672;13.548;2022-08-01T14:47:39;1.25;;;0.98;;
71083;SDS011;58741;52.672;13.548;2022-08-01T14:50:07;0.82;;;0.82;;
71083;SDS011;58741;52.672;13.548;2022-08-01T14:52:35;0.80;;;0.80;;
71083;SDS011;58741;52.672;13.548;2022-08-01T14:55:02;0.93;;;0.65;;
71083;SDS011;58741;52.672;13.548;2022-08-01T14:57:29;0.60;;;0.60;;
71083;SDS011;58741;52.672;13.548;2022-08-01T14:59:55;1.20;;;0.70;;
71083;SDS011;58741;52.672;13.548;2022-08-01T15:02:21;0.50;;;0.50;;
71083;SDS011;58741;52.672;13.548;2022-08-01T15:04:46;1.80;;;0.60;;
71083;SDS011;58741;52.672;13.548;2022-08-01T15:07:12;1.70;;;0.60;;
71083;SDS011;58741;52.672;13.548;2022-08-01T15:09:38;1.85;;;0.50;;
71083;SDS011;58741;52.672;13.548;2022-08-01T15:12:04;0.63;;;0.57;;
71083;SDS011;58741;52.672;13.548;2022-08-01T15:14:30;0.50;;;0.50;;
71083;SDS011;58741;52.672;13.548;2022-08-01T15:17:18;0.60;;;0.57;;
71083;SDS011;58741;52.672;13.548;2022-08-01T15:19:51;5.93;;;0.73;;
71083;SDS011;58741;52.672;13.548;2022-08-01T15:22:18;1.33;;;0.60;;